createdAt,value
2019-03-03T00:02:43.541Z,9.86
2019-03-03T00:07:46.966Z,9.81
2019-03-03T00:12:50.385Z,9.87
2019-03-03T00:17:53.819Z,9.83
2019-03-03T00:22:57.251Z,9.83
2019-03-03T00:28:00.814Z,9.83
2019-03-03T00:33:04.288Z,9.88
2019-03-03T00:38:12.273Z,9.87
2019-03-03T00:43:19.810Z,9.95
2019-03-03T00:48:27.710Z,9.92
2019-03-03T00:53:45.150Z,9.96
2019-03-03T00:58:50.222Z,9.94
2019-03-03T01:04:01.124Z,9.95
2019-03-03T01:09:11.955Z,10.00
2019-03-03T01:14:22.852Z,10.00
2019-03-03T01:19:28.039Z,9.97
2019-03-03T01:24:39.023Z,10.01
2019-03-03T01:29:42.491Z,9.96
2019-03-03T01:34:45.909Z,9.95
2019-03-03T01:39:49.389Z,9.98
2019-03-03T01:44:52.926Z,9.97
2019-03-03T01:49:56.368Z,10.06
2019-03-03T01:54:59.805Z,10.08
2019-03-03T02:00:04.835Z,10.07
2019-03-03T02:05:08.405Z,10.01
2019-03-03T02:10:11.962Z,9.96
2019-03-03T02:15:15.469Z,9.95
2019-03-03T02:20:18.881Z,9.94
2019-03-03T02:25:22.338Z,9.99
2019-03-03T02:30:26.334Z,10.01
2019-03-03T02:35:29.902Z,9.98
2019-03-03T02:40:33.410Z,10.01
2019-03-03T02:45:37.789Z,9.99
2019-03-03T02:50:41.248Z,10.02
2019-03-03T02:55:44.668Z,9.98
2019-03-03T03:00:49.736Z,9.91
2019-03-03T03:06:03.841Z,9.98
2019-03-03T03:11:17.709Z,10.06
2019-03-03T03:16:26.037Z,9.99
2019-03-03T03:21:47.417Z,9.89
2019-03-03T03:26:57.969Z,9.88
2019-03-03T03:32:08.705Z,9.87
2019-03-03T03:37:30.031Z,9.87
2019-03-03T03:42:35.111Z,9.78
2019-03-03T03:47:43.033Z,9.71
2019-03-03T03:52:56.578Z,9.69
2019-03-03T03:58:01.617Z,9.70
2019-03-03T04:03:13.035Z,9.66
2019-03-03T04:08:30.340Z,9.69
2019-03-03T04:13:35.384Z,9.61
2019-03-03T04:18:40.468Z,9.67
2019-03-03T04:24:01.846Z,9.62
2019-03-03T04:29:06.910Z,9.65
2019-03-03T04:34:11.971Z,9.65
2019-03-03T04:39:33.159Z,9.62
2019-03-03T04:44:40.729Z,9.70
2019-03-03T04:50:04.033Z,9.74
2019-03-03T04:55:18.807Z,9.71
2019-03-03T05:00:42.234Z,9.70
2019-03-03T05:05:53.096Z,9.75
2019-03-03T05:10:58.139Z,9.74
2019-03-03T05:16:03.204Z,9.79
2019-03-03T05:21:06.790Z,9.80
2019-03-03T05:26:10.277Z,9.82
2019-03-03T05:31:13.712Z,9.90
2019-03-03T05:36:17.137Z,9.86
2019-03-03T05:41:20.582Z,9.81
2019-03-03T05:46:24.075Z,9.82
2019-03-03T05:51:28.293Z,9.80
2019-03-03T05:56:31.784Z,9.75
2019-03-03T06:01:35.214Z,9.69
2019-03-03T06:06:38.646Z,9.66
2019-03-03T06:11:42.122Z,9.71
2019-03-03T06:16:45.547Z,9.74
2019-03-03T06:21:48.975Z,9.85
2019-03-03T06:26:52.402Z,9.87
2019-03-03T06:31:55.813Z,9.91
2019-03-03T06:36:59.257Z,9.90
2019-03-03T06:42:02.688Z,9.93
2019-03-03T06:47:06.197Z,9.94
2019-03-03T06:52:09.653Z,9.96
2019-03-03T06:57:13.128Z,9.97
2019-03-03T07:02:16.581Z,9.96
2019-03-03T07:07:20.028Z,9.87
2019-03-03T07:12:23.488Z,9.93
2019-03-03T07:17:26.924Z,9.98
2019-03-03T07:22:30.393Z,9.99
2019-03-03T07:27:33.884Z,9.95
2019-03-03T07:32:38.965Z,9.97
2019-03-03T07:37:42.470Z,9.96
2019-03-03T07:42:45.862Z,10.00
2019-03-03T07:47:49.288Z,9.91
2019-03-03T07:52:52.766Z,9.91
2019-03-03T07:57:56.202Z,9.88
2019-03-03T08:02:59.711Z,9.95
2019-03-03T08:08:03.136Z,9.86
2019-03-03T08:13:09.461Z,9.89
2019-03-03T08:18:11.731Z,9.90
2019-03-03T08:23:15.339Z,9.86
2019-03-03T08:28:18.761Z,9.94
2019-03-03T08:33:22.212Z,9.87
2019-03-03T08:38:25.643Z,9.93
2019-03-03T08:43:30.702Z,9.91
2019-03-03T08:48:35.777Z,9.97
2019-03-03T08:53:56.958Z,10.02
2019-03-03T08:59:18.189Z,10.01
2019-03-03T09:04:39.339Z,10.00
2019-03-03T09:09:44.426Z,9.97
2019-03-03T09:14:58.103Z,9.94
2019-03-03T09:20:05.698Z,9.98
2019-03-03T09:25:14.089Z,10.03
2019-03-03T09:30:31.479Z,9.98
2019-03-03T09:35:52.363Z,10.10
2019-03-03T09:41:00.220Z,10.11
2019-03-03T09:46:05.366Z,10.10
2019-03-03T09:51:10.490Z,10.14
2019-03-03T09:56:18.414Z,10.21
2019-03-03T10:01:39.213Z,10.22
2019-03-03T10:06:44.297Z,10.20
2019-03-03T10:11:52.164Z,10.22
2019-03-03T10:17:00.163Z,10.18
2019-03-03T10:22:05.330Z,10.18
2019-03-03T10:27:13.135Z,10.28
2019-03-03T10:32:23.917Z,10.20
2019-03-03T10:37:31.709Z,10.26
2019-03-03T10:42:39.805Z,10.34
2019-03-03T10:47:44.878Z,10.42
2019-03-03T10:52:50.093Z,10.39
2019-03-03T10:57:55.168Z,10.43
2019-03-03T11:03:01.929Z,10.42
2019-03-03T11:08:19.084Z,10.51
2019-03-03T11:13:29.639Z,10.53
2019-03-03T11:18:43.650Z,10.51
2019-03-03T11:23:51.197Z,10.57
2019-03-03T11:28:56.264Z,10.55
2019-03-03T11:34:01.417Z,10.62
2019-03-03T11:39:15.371Z,10.63
2019-03-03T11:44:23.235Z,10.72
2019-03-03T11:49:37.275Z,10.65
2019-03-03T11:54:42.372Z,10.63
2019-03-03T12:00:04.100Z,10.66
2019-03-03T12:05:15.285Z,10.58
2019-03-03T12:10:36.740Z,10.72
2019-03-03T12:15:41.808Z,10.64
2019-03-03T12:20:47.017Z,10.76
2019-03-03T12:25:52.134Z,10.71
2019-03-03T12:30:59.743Z,10.75
2019-03-03T12:36:05.076Z,10.87
2019-03-03T12:41:26.066Z,11.02
2019-03-03T12:46:31.158Z,11.13
2019-03-03T12:51:36.230Z,11.23
2019-03-03T12:56:41.284Z,11.21
2019-03-03T13:01:52.028Z,11.12
2019-03-03T13:07:15.026Z,11.13
2019-03-03T13:12:29.345Z,11.09
2019-03-03T13:17:48.449Z,11.24
2019-03-03T13:23:05.362Z,11.19
2019-03-03T13:28:26.544Z,11.25
2019-03-03T13:33:31.619Z,11.23
2019-03-03T13:38:39.518Z,11.24
2019-03-03T13:43:42.978Z,11.33
2019-03-03T13:48:46.399Z,11.24
2019-03-03T13:53:49.824Z,11.26
2019-03-03T13:58:53.318Z,11.18
2019-03-03T14:03:56.727Z,11.21
2019-03-03T14:09:00.171Z,11.14
2019-03-03T14:14:04.749Z,11.17
2019-03-03T14:19:08.293Z,11.09
2019-03-03T14:24:11.815Z,11.14
2019-03-03T14:29:15.316Z,11.14
2019-03-03T14:34:18.762Z,11.19
2019-03-03T14:39:22.205Z,11.15
2019-03-03T14:44:25.642Z,11.14
2019-03-03T14:49:29.172Z,11.14
2019-03-03T14:54:32.599Z,11.17
2019-03-03T14:59:36.029Z,11.17
2019-03-03T15:04:39.462Z,11.09
2019-03-03T15:09:42.900Z,11.11
2019-03-03T15:14:46.314Z,11.02
2019-03-03T15:19:49.751Z,11.03
2019-03-03T15:24:53.202Z,11.02
2019-03-03T15:29:56.667Z,10.96
2019-03-03T15:35:00.275Z,10.93
2019-03-03T15:40:05.787Z,10.94
2019-03-03T15:45:15.073Z,11.00
2019-03-03T15:50:20.566Z,10.92
2019-03-03T15:55:25.944Z,10.93
2019-03-03T16:00:31.970Z,10.96
2019-03-03T16:05:35.487Z,10.96
2019-03-03T16:10:38.927Z,10.88
2019-03-03T16:15:42.449Z,10.93
2019-03-03T16:20:45.896Z,10.93
2019-03-03T16:25:49.330Z,10.96
2019-03-03T16:30:52.743Z,10.91
2019-03-03T16:35:56.163Z,10.97
2019-03-03T16:40:59.585Z,11.01
2019-03-03T16:46:03.093Z,11.01
2019-03-03T16:51:06.521Z,11.04
2019-03-03T16:56:10.018Z,11.01
2019-03-03T17:01:13.431Z,11.07
2019-03-03T17:06:16.850Z,11.07
2019-03-03T17:11:20.316Z,11.01
2019-03-03T17:16:23.750Z,10.95
2019-03-03T17:21:27.877Z,10.96
2019-03-03T17:26:31.388Z,11.00
2019-03-03T17:31:34.965Z,11.02
2019-03-03T17:36:38.403Z,10.98
2019-03-03T17:41:42.197Z,11.01
2019-03-03T17:46:45.633Z,10.96
2019-03-03T17:51:49.106Z,10.96
2019-03-03T17:56:52.621Z,10.96
2019-03-03T18:01:56.142Z,10.99
2019-03-03T18:06:59.749Z,11.01
2019-03-03T18:12:03.455Z,11.00
2019-03-03T18:17:07.058Z,11.02
2019-03-03T18:22:10.526Z,11.08
2019-03-03T18:27:13.993Z,11.04
2019-03-03T18:32:17.534Z,11.08
2019-03-03T18:37:21.605Z,11.10
2019-03-03T18:42:25.145Z,11.08
2019-03-03T18:47:28.654Z,11.05
2019-03-03T18:52:32.287Z,11.09
2019-03-03T18:57:35.849Z,11.07
2019-03-03T19:02:39.467Z,10.99
2019-03-03T19:07:42.981Z,11.01
2019-03-03T19:12:46.687Z,11.01
2019-03-03T19:17:51.016Z,11.00
2019-03-03T19:22:54.526Z,11.03
2019-03-03T19:27:58.487Z,11.04
2019-03-03T19:33:16.599Z,11.12
2019-03-03T19:38:20.507Z,11.13
2019-03-03T19:43:24.097Z,11.11
2019-03-03T19:48:27.540Z,11.06
2019-03-03T19:53:31.093Z,11.06
2019-03-03T19:58:34.581Z,11.02
2019-03-03T20:03:38.002Z,11.06
2019-03-03T20:08:41.435Z,11.06
2019-03-03T20:13:44.945Z,11.08
2019-03-03T20:18:48.489Z,11.08
2019-03-03T20:23:51.898Z,11.16
2019-03-03T20:28:55.332Z,11.20
2019-03-03T20:33:58.790Z,11.27
2019-03-03T20:39:02.211Z,11.30
2019-03-03T20:44:05.665Z,11.30
2019-03-03T20:49:09.090Z,11.32
2019-03-03T20:54:12.561Z,11.40
2019-03-03T20:59:15.979Z,11.44
2019-03-03T21:04:19.423Z,11.53
2019-03-03T21:09:22.841Z,11.50
2019-03-03T21:14:26.269Z,11.51
2019-03-03T21:19:29.687Z,11.53
2019-03-03T21:24:33.115Z,11.50
2019-03-03T21:29:36.541Z,11.57
2019-03-03T21:34:39.986Z,11.59
2019-03-03T21:39:43.400Z,11.54
2019-03-03T21:44:46.842Z,11.61
2019-03-03T21:49:50.286Z,11.66
2019-03-03T21:54:53.689Z,11.62
2019-03-03T21:59:57.134Z,11.61
2019-03-03T22:05:00.557Z,11.59
2019-03-03T22:10:05.535Z,11.59
2019-03-03T22:15:11.517Z,11.52
2019-03-03T22:20:14.976Z,11.42
2019-03-03T22:25:18.413Z,11.47
2019-03-03T22:30:21.926Z,11.47
2019-03-03T22:35:25.439Z,11.40
2019-03-03T22:40:28.889Z,11.38
2019-03-03T22:45:32.355Z,11.41
2019-03-03T22:50:35.790Z,11.43
2019-03-03T22:55:40.495Z,11.36
2019-03-03T23:00:51.280Z,11.47
2019-03-03T23:06:14.458Z,11.48
2019-03-03T23:11:23.565Z,11.52
2019-03-03T23:16:36.136Z,11.55
2019-03-03T23:21:48.777Z,11.53
2019-03-03T23:26:52.243Z,11.48
2019-03-03T23:31:55.671Z,11.54
2019-03-03T23:36:59.953Z,11.50
2019-03-03T23:42:03.467Z,11.52
2019-03-03T23:47:07.007Z,11.51
2019-03-03T23:52:12.422Z,11.57
2019-03-03T23:57:15.569Z,11.70
